Mount Joy, Pennsylvania
Current Conditions -  °F | °C
As of 1:00 PM on Thursday 23 Oct 2014 (Local Time) from KLNS Reporting Station
Overcast Overcast  
Wind Chill: 13°   Ceiling: 3000
Heat Index: 13°   Visibility: 10mi
Dew Point:   Wind: 14mph
Humidity: 67%   Direction: 330°NNW
Pressure: 29.83"   Gusts: 23mph
Location:  40.11°N, 76.51°W
Report Text: KLNS 231700Z 33012G20KT 10SM BKN030 BKN035 OVC075 13/07 A2983 RMK AO2 T01330072
Loading
Personal Weather Stations






























Interactive Weather Map
Tropical Storm Tracking
New forecast layout! Learn more

10-Day Weather Forecast

Advertisements
Track Severe Weather on mobile